sensor_id;sensor_type;location;lat;lon;timestamp;P1;durP1;ratioP1;P2;durP2;ratioP2
72621;SDS011;60665;53.506;9.582;2022-08-23T00:01:06;4.93;;;1.40;;
72621;SDS011;60665;53.506;9.582;2022-08-23T00:03:35;5.28;;;1.70;;
72621;SDS011;60665;53.506;9.582;2022-08-23T00:06:00;4.47;;;1.77;;
72621;SDS011;60665;53.506;9.582;2022-08-23T00:08:26;5.15;;;1.40;;
72621;SDS011;60665;53.506;9.582;2022-08-23T00:10:52;5.22;;;1.40;;
72621;SDS011;60665;53.506;9.582;2022-08-23T00:13:18;5.20;;;1.40;;
72621;SDS011;60665;53.506;9.582;2022-08-23T00:15:43;5.32;;;1.30;;
72621;SDS011;60665;53.506;9.582;2022-08-23T00:18:08;6.10;;;1.80;;
72621;SDS011;60665;53.506;9.582;2022-08-23T00:20:34;3.58;;;1.52;;
72621;SDS011;60665;53.506;9.582;2022-08-23T00:22:59;4.32;;;1.70;;
72621;SDS011;60665;53.506;9.582;2022-08-23T00:25:25;5.15;;;1.63;;
72621;SDS011;60665;53.506;9.582;2022-08-23T00:27:51;3.45;;;1.55;;
72621;SDS011;60665;53.506;9.582;2022-08-23T00:30:17;5.47;;;2.13;;
72621;SDS011;60665;53.506;9.582;2022-08-23T00:32:43;3.20;;;1.20;;
72621;SDS011;60665;53.506;9.582;2022-08-23T00:35:10;2.90;;;1.38;;
72621;SDS011;60665;53.506;9.582;2022-08-23T00:37:37;6.65;;;1.83;;
72621;SDS011;60665;53.506;9.582;2022-08-23T00:40:04;3.53;;;1.60;;
72621;SDS011;60665;53.506;9.582;2022-08-23T00:45:16;4.35;;;1.88;;
72621;SDS011;60665;53.506;9.582;2022-08-23T00:48:04;4.22;;;1.33;;
72621;SDS011;60665;53.506;9.582;2022-08-23T00:53:32;4.18;;;1.13;;
72621;SDS011;60665;53.506;9.582;2022-08-23T00:56:00;3.70;;;1.40;;
72621;SDS011;60665;53.506;9.582;2022-08-23T00:58:28;4.07;;;1.52;;
72621;SDS011;60665;53.506;9.582;2022-08-23T01:00:54;4.32;;;1.35;;
72621;SDS011;60665;53.506;9.582;2022-08-23T01:03:21;4.13;;;1.23;;
72621;SDS011;60665;53.506;9.582;2022-08-23T01:06:06;5.90;;;1.27;;
72621;SDS011;60665;53.506;9.582;2022-08-23T01:08:36;4.68;;;1.67;;
72621;SDS011;60665;53.506;9.582;2022-08-23T01:11:07;3.15;;;1.40;;
72621;SDS011;60665;53.506;9.582;2022-08-23T01:13:36;4.53;;;1.25;;
72621;SDS011;60665;53.506;9.582;2022-08-23T01:16:06;4.05;;;1.73;;
72621;SDS011;60665;53.506;9.582;2022-08-23T01:18:34;5.35;;;1.50;;
72621;SDS011;60665;53.506;9.582;2022-08-23T01:24:07;4.38;;;1.63;;
72621;SDS011;60665;53.506;9.582;2022-08-23T01:26:34;3.58;;;1.30;;
72621;SDS011;60665;53.506;9.582;2022-08-23T01:29:01;3.55;;;1.58;;
72621;SDS011;60665;53.506;9.582;2022-08-23T01:31:29;4.32;;;1.30;;
72621;SDS011;60665;53.506;9.582;2022-08-23T01:33:58;3.35;;;1.40;;
72621;SDS011;60665;53.506;9.582;2022-08-23T01:36:26;4.90;;;1.60;;
72621;SDS011;60665;53.506;9.582;2022-08-23T01:38:52;4.78;;;1.50;;
72621;SDS011;60665;53.506;9.582;2022-08-23T01:41:17;3.92;;;1.67;;
72621;SDS011;60665;53.506;9.582;2022-08-23T01:43:43;3.55;;;1.40;;
72621;SDS011;60665;53.506;9.582;2022-08-23T01:46:11;5.00;;;1.83;;
72621;SDS011;60665;53.506;9.582;2022-08-23T01:48:39;4.05;;;1.48;;
72621;SDS011;60665;53.506;9.582;2022-08-23T01:51:04;4.55;;;1.40;;
72621;SDS011;60665;53.506;9.582;2022-08-23T01:53:31;4.82;;;1.48;;
72621;SDS011;60665;53.506;9.582;2022-08-23T01:55:56;5.18;;;1.67;;
72621;SDS011;60665;53.506;9.582;2022-08-23T01:58:23;4.85;;;1.52;;
72621;SDS011;60665;53.506;9.582;2022-08-23T02:00:48;6.47;;;1.88;;
72621;SDS011;60665;53.506;9.582;2022-08-23T02:03:14;5.07;;;1.35;;
72621;SDS011;60665;53.506;9.582;2022-08-23T02:05:39;3.92;;;1.50;;
72621;SDS011;60665;53.506;9.582;2022-08-23T02:08:06;5.07;;;2.00;;
72621;SDS011;60665;53.506;9.582;2022-08-23T02:10:51;3.67;;;1.48;;
72621;SDS011;60665;53.506;9.582;2022-08-23T02:13:17;6.00;;;1.35;;
72621;SDS011;60665;53.506;9.582;2022-08-23T02:15:43;4.68;;;1.40;;
72621;SDS011;60665;53.506;9.582;2022-08-23T02:18:10;3.50;;;1.38;;
72621;SDS011;60665;53.506;9.582;2022-08-23T02:20:36;5.82;;;1.60;;
72621;SDS011;60665;53.506;9.582;2022-08-23T02:23:04;5.30;;;1.48;;
72621;SDS011;60665;53.506;9.582;2022-08-23T02:25:29;3.83;;;1.48;;
72621;SDS011;60665;53.506;9.582;2022-08-23T02:27:55;3.97;;;1.40;;
72621;SDS011;60665;53.506;9.582;2022-08-23T02:30:20;4.60;;;1.70;;
72621;SDS011;60665;53.506;9.582;2022-08-23T02:32:45;4.93;;;1.67;;
72621;SDS011;60665;53.506;9.582;2022-08-23T02:35:11;3.45;;;1.25;;
72621;SDS011;60665;53.506;9.582;2022-08-23T02:37:36;4.32;;;1.67;;
72621;SDS011;60665;53.506;9.582;2022-08-23T02:40:02;6.13;;;1.58;;
72621;SDS011;60665;53.506;9.582;2022-08-23T02:42:29;5.20;;;1.90;;
72621;SDS011;60665;53.506;9.582;2022-08-23T02:44:54;5.07;;;1.60;;
72621;SDS011;60665;53.506;9.582;2022-08-23T02:47:20;4.03;;;1.70;;
72621;SDS011;60665;53.506;9.582;2022-08-23T02:49:45;7.07;;;1.65;;
72621;SDS011;60665;53.506;9.582;2022-08-23T02:52:10;4.97;;;1.40;;
72621;SDS011;60665;53.506;9.582;2022-08-23T02:54:36;5.57;;;1.90;;
72621;SDS011;60665;53.506;9.582;2022-08-23T02:57:02;7.60;;;2.30;;
72621;SDS011;60665;53.506;9.582;2022-08-23T02:59:27;6.18;;;1.70;;
72621;SDS011;60665;53.506;9.582;2022-08-23T03:01:53;4.30;;;1.90;;
72621;SDS011;60665;53.506;9.582;2022-08-23T03:04:18;5.90;;;1.30;;
72621;SDS011;60665;53.506;9.582;2022-08-23T03:06:44;5.18;;;1.95;;
72621;SDS011;60665;53.506;9.582;2022-08-23T03:09:09;5.82;;;1.90;;
72621;SDS011;60665;53.506;9.582;2022-08-23T03:11:35;6.65;;;2.15;;
72621;SDS011;60665;53.506;9.582;2022-08-23T03:14:01;5.10;;;1.67;;
72621;SDS011;60665;53.506;9.582;2022-08-23T03:16:27;3.72;;;1.90;;
72621;SDS011;60665;53.506;9.582;2022-08-23T03:18:52;4.68;;;1.70;;
72621;SDS011;60665;53.506;9.582;2022-08-23T03:21:18;4.43;;;1.90;;
72621;SDS011;60665;53.506;9.582;2022-08-23T03:23:44;5.40;;;1.85;;
72621;SDS011;60665;53.506;9.582;2022-08-23T03:26:11;6.35;;;1.70;;
72621;SDS011;60665;53.506;9.582;2022-08-23T03:28:38;7.00;;;1.77;;
72621;SDS011;60665;53.506;9.582;2022-08-23T03:31:04;5.65;;;1.70;;
72621;SDS011;60665;53.506;9.582;2022-08-23T03:33:30;5.20;;;1.90;;
72621;SDS011;60665;53.506;9.582;2022-08-23T03:36:00;5.32;;;1.42;;
72621;SDS011;60665;53.506;9.582;2022-08-23T03:38:26;6.50;;;1.80;;
72621;SDS011;60665;53.506;9.582;2022-08-23T03:40:51;3.83;;;1.88;;
72621;SDS011;60665;53.506;9.582;2022-08-23T03:43:18;4.45;;;1.50;;
72621;SDS011;60665;53.506;9.582;2022-08-23T03:45:43;5.50;;;2.03;;
72621;SDS011;60665;53.506;9.582;2022-08-23T03:48:09;7.03;;;1.95;;
72621;SDS011;60665;53.506;9.582;2022-08-23T03:50:34;5.25;;;1.70;;
72621;SDS011;60665;53.506;9.582;2022-08-23T03:53:00;6.45;;;1.73;;
72621;SDS011;60665;53.506;9.582;2022-08-23T03:55:25;6.65;;;1.83;;
72621;SDS011;60665;53.506;9.582;2022-08-23T03:57:51;4.30;;;1.65;;
72621;SDS011;60665;53.506;9.582;2022-08-23T04:00:16;6.80;;;1.45;;
72621;SDS011;60665;53.506;9.582;2022-08-23T04:02:42;4.75;;;1.67;;
72621;SDS011;60665;53.506;9.582;2022-08-23T04:05:07;5.25;;;1.83;;
72621;SDS011;60665;53.506;9.582;2022-08-23T04:07:34;4.88;;;1.70;;
72621;SDS011;60665;53.506;9.582;2022-08-23T04:10:04;4.93;;;2.10;;
72621;SDS011;60665;53.506;9.582;2022-08-23T04:12:31;4.57;;;1.80;;
72621;SDS011;60665;53.506;9.582;2022-08-23T04:14:56;5.38;;;2.10;;
72621;SDS011;60665;53.506;9.582;2022-08-23T04:17:22;4.88;;;1.90;;
72621;SDS011;60665;53.506;9.582;2022-08-23T04:19:47;4.65;;;1.65;;
72621;SDS011;60665;53.506;9.582;2022-08-23T04:22:14;6.00;;;2.13;;
72621;SDS011;60665;53.506;9.582;2022-08-23T04:24:40;4.55;;;2.20;;
72621;SDS011;60665;53.506;9.582;2022-08-23T04:27:06;5.82;;;2.30;;
72621;SDS011;60665;53.506;9.582;2022-08-23T04:29:32;5.50;;;2.08;;
72621;SDS011;60665;53.506;9.582;2022-08-23T04:31:57;4.72;;;1.90;;
72621;SDS011;60665;53.506;9.582;2022-08-23T04:34:23;6.07;;;1.77;;
72621;SDS011;60665;53.506;9.582;2022-08-23T04:36:48;7.15;;;1.98;;
72621;SDS011;60665;53.506;9.582;2022-08-23T04:39:14;4.65;;;1.77;;
72621;SDS011;60665;53.506;9.582;2022-08-23T04:41:40;5.03;;;1.80;;
72621;SDS011;60665;53.506;9.582;2022-08-23T04:44:24;6.45;;;2.05;;
72621;SDS011;60665;53.506;9.582;2022-08-23T04:46:49;6.43;;;2.28;;
72621;SDS011;60665;53.506;9.582;2022-08-23T04:49:15;9.63;;;1.85;;
72621;SDS011;60665;53.506;9.582;2022-08-23T04:51:41;8.70;;;2.45;;
72621;SDS011;60665;53.506;9.582;2022-08-23T04:54:06;6.82;;;2.33;;
72621;SDS011;60665;53.506;9.582;2022-08-23T04:56:35;5.95;;;2.03;;
72621;SDS011;60665;53.506;9.582;2022-08-23T04:59:00;6.25;;;1.63;;
72621;SDS011;60665;53.506;9.582;2022-08-23T05:01:27;7.00;;;2.33;;
72621;SDS011;60665;53.506;9.582;2022-08-23T05:03:52;6.65;;;1.98;;
72621;SDS011;60665;53.506;9.582;2022-08-23T05:06:19;5.20;;;1.80;;
72621;SDS011;60665;53.506;9.582;2022-08-23T05:08:44;5.97;;;1.60;;
72621;SDS011;60665;53.506;9.582;2022-08-23T05:11:10;4.97;;;1.90;;
72621;SDS011;60665;53.506;9.582;2022-08-23T05:13:36;9.00;;;2.40;;
72621;SDS011;60665;53.506;9.582;2022-08-23T05:16:02;5.30;;;2.00;;
72621;SDS011;60665;53.506;9.582;2022-08-23T05:18:28;6.18;;;2.08;;
72621;SDS011;60665;53.506;9.582;2022-08-23T05:20:54;5.40;;;2.00;;
72621;SDS011;60665;53.506;9.582;2022-08-23T05:23:19;6.35;;;2.22;;
72621;SDS011;60665;53.506;9.582;2022-08-23T05:25:45;4.38;;;1.80;;
72621;SDS011;60665;53.506;9.582;2022-08-23T05:28:34;6.63;;;2.30;;
72621;SDS011;60665;53.506;9.582;2022-08-23T05:33:29;5.15;;;1.90;;
72621;SDS011;60665;53.506;9.582;2022-08-23T05:35:55;7.80;;;2.13;;
72621;SDS011;60665;53.506;9.582;2022-08-23T05:38:21;8.25;;;2.30;;
72621;SDS011;60665;53.506;9.582;2022-08-23T05:40:50;4.85;;;2.53;;
72621;SDS011;60665;53.506;9.582;2022-08-23T05:43:18;5.32;;;2.00;;
72621;SDS011;60665;53.506;9.582;2022-08-23T05:45:43;7.68;;;2.63;;
72621;SDS011;60665;53.506;9.582;2022-08-23T05:48:09;10.57;;;2.33;;
72621;SDS011;60665;53.506;9.582;2022-08-23T05:50:36;6.05;;;1.88;;
72621;SDS011;60665;53.506;9.582;2022-08-23T05:53:02;4.18;;;1.70;;
72621;SDS011;60665;53.506;9.582;2022-08-23T05:55:27;4.85;;;2.10;;
72621;SDS011;60665;53.506;9.582;2022-08-23T05:57:53;4.88;;;1.92;;
72621;SDS011;60665;53.506;9.582;2022-08-23T06:00:18;5.85;;;2.17;;
72621;SDS011;60665;53.506;9.582;2022-08-23T06:02:44;6.82;;;2.95;;
72621;SDS011;60665;53.506;9.582;2022-08-23T06:05:09;9.55;;;2.63;;
72621;SDS011;60665;53.506;9.582;2022-08-23T06:07:35;5.07;;;2.60;;
72621;SDS011;60665;53.506;9.582;2022-08-23T06:10:01;7.80;;;2.88;;
72621;SDS011;60665;53.506;9.582;2022-08-23T06:12:27;5.20;;;2.35;;
72621;SDS011;60665;53.506;9.582;2022-08-23T06:14:55;5.97;;;3.00;;
72621;SDS011;60665;53.506;9.582;2022-08-23T06:17:20;6.95;;;2.13;;
72621;SDS011;60665;53.506;9.582;2022-08-23T06:19:45;6.40;;;2.42;;
72621;SDS011;60665;53.506;9.582;2022-08-23T06:22:11;5.13;;;2.30;;
72621;SDS011;60665;53.506;9.582;2022-08-23T06:24:36;8.77;;;2.50;;
72621;SDS011;60665;53.506;9.582;2022-08-23T06:27:01;6.00;;;2.17;;
72621;SDS011;60665;53.506;9.582;2022-08-23T06:29:27;5.75;;;2.20;;
72621;SDS011;60665;53.506;9.582;2022-08-23T06:31:52;5.55;;;1.98;;
72621;SDS011;60665;53.506;9.582;2022-08-23T06:34:26;5.72;;;2.13;;
72621;SDS011;60665;53.506;9.582;2022-08-23T06:36:57;6.88;;;2.03;;
72621;SDS011;60665;53.506;9.582;2022-08-23T06:39:26;6.75;;;2.42;;
72621;SDS011;60665;53.506;9.582;2022-08-23T06:41:56;6.47;;;2.00;;
72621;SDS011;60665;53.506;9.582;2022-08-23T06:44:24;5.50;;;2.45;;
72621;SDS011;60665;53.506;9.582;2022-08-23T06:46:50;5.00;;;2.00;;
72621;SDS011;60665;53.506;9.582;2022-08-23T06:49:16;7.30;;;2.00;;
72621;SDS011;60665;53.506;9.582;2022-08-23T06:51:47;9.05;;;2.25;;
72621;SDS011;60665;53.506;9.582;2022-08-23T06:54:14;5.95;;;2.05;;
72621;SDS011;60665;53.506;9.582;2022-08-23T06:56:41;5.80;;;1.80;;
72621;SDS011;60665;53.506;9.582;2022-08-23T06:59:07;5.03;;;1.92;;
72621;SDS011;60665;53.506;9.582;2022-08-23T07:04:16;5.03;;;1.92;;
72621;SDS011;60665;53.506;9.582;2022-08-23T07:06:45;5.80;;;1.90;;
72621;SDS011;60665;53.506;9.582;2022-08-23T07:09:10;4.57;;;1.80;;
72621;SDS011;60665;53.506;9.582;2022-08-23T07:11:36;4.82;;;2.15;;
72621;SDS011;60665;53.506;9.582;2022-08-23T07:14:03;5.90;;;2.20;;
72621;SDS011;60665;53.506;9.582;2022-08-23T07:16:33;5.25;;;1.95;;
72621;SDS011;60665;53.506;9.582;2022-08-23T07:18:59;8.05;;;1.70;;
72621;SDS011;60665;53.506;9.582;2022-08-23T07:21:25;5.50;;;1.77;;
72621;SDS011;60665;53.506;9.582;2022-08-23T07:23:50;6.18;;;2.05;;
72621;SDS011;60665;53.506;9.582;2022-08-23T07:26:16;5.75;;;1.92;;
72621;SDS011;60665;53.506;9.582;2022-08-23T07:28:42;5.40;;;1.60;;
72621;SDS011;60665;53.506;9.582;2022-08-23T07:31:09;5.43;;;1.73;;
72621;SDS011;60665;53.506;9.582;2022-08-23T07:33:35;3.35;;;1.90;;
72621;SDS011;60665;53.506;9.582;2022-08-23T07:36:01;4.68;;;2.30;;
72621;SDS011;60665;53.506;9.582;2022-08-23T07:38:27;5.65;;;2.17;;
72621;SDS011;60665;53.506;9.582;2022-08-23T07:40:54;5.22;;;2.78;;
72621;SDS011;60665;53.506;9.582;2022-08-23T07:43:19;7.00;;;1.60;;
72621;SDS011;60665;53.506;9.582;2022-08-23T07:45:47;5.47;;;1.75;;
72621;SDS011;60665;53.506;9.582;2022-08-23T07:48:12;6.60;;;1.65;;
72621;SDS011;60665;53.506;9.582;2022-08-23T07:50:38;6.35;;;2.35;;
72621;SDS011;60665;53.506;9.582;2022-08-23T07:53:04;4.25;;;1.70;;
72621;SDS011;60665;53.506;9.582;2022-08-23T07:55:31;8.68;;;2.03;;
72621;SDS011;60665;53.506;9.582;2022-08-23T07:57:56;6.18;;;1.80;;
72621;SDS011;60665;53.506;9.582;2022-08-23T08:00:21;7.53;;;1.73;;
72621;SDS011;60665;53.506;9.582;2022-08-23T08:02:47;5.88;;;2.15;;
72621;SDS011;60665;53.506;9.582;2022-08-23T08:05:12;7.43;;;2.10;;
72621;SDS011;60665;53.506;9.582;2022-08-23T08:07:37;4.90;;;1.90;;
72621;SDS011;60665;53.506;9.582;2022-08-23T08:10:03;7.78;;;1.80;;
72621;SDS011;60665;53.506;9.582;2022-08-23T08:12:29;3.95;;;1.65;;
72621;SDS011;60665;53.506;9.582;2022-08-23T08:14:57;3.72;;;1.75;;
72621;SDS011;60665;53.506;9.582;2022-08-23T08:17:23;4.72;;;1.60;;
72621;SDS011;60665;53.506;9.582;2022-08-23T08:19:48;4.63;;;1.40;;
72621;SDS011;60665;53.506;9.582;2022-08-23T08:22:14;4.60;;;1.63;;
72621;SDS011;60665;53.506;9.582;2022-08-23T08:24:39;4.55;;;1.60;;
72621;SDS011;60665;53.506;9.582;2022-08-23T08:27:05;4.40;;;1.73;;
72621;SDS011;60665;53.506;9.582;2022-08-23T08:29:31;6.60;;;1.80;;
72621;SDS011;60665;53.506;9.582;2022-08-23T08:31:56;5.15;;;1.60;;
72621;SDS011;60665;53.506;9.582;2022-08-23T08:34:22;5.57;;;2.30;;
72621;SDS011;60665;53.506;9.582;2022-08-23T08:36:49;4.85;;;1.90;;
72621;SDS011;60665;53.506;9.582;2022-08-23T08:39:19;5.18;;;1.50;;
72621;SDS011;60665;53.506;9.582;2022-08-23T08:44:41;5.53;;;1.88;;
72621;SDS011;60665;53.506;9.582;2022-08-23T08:47:16;5.80;;;1.60;;
72621;SDS011;60665;53.506;9.582;2022-08-23T08:49:50;5.07;;;1.80;;
72621;SDS011;60665;53.506;9.582;2022-08-23T08:52:25;6.57;;;1.60;;
72621;SDS011;60665;53.506;9.582;2022-08-23T08:55:03;4.95;;;1.63;;
72621;SDS011;60665;53.506;9.582;2022-08-23T08:57:29;4.45;;;1.50;;
72621;SDS011;60665;53.506;9.582;2022-08-23T09:02:22;4.50;;;2.10;;
72621;SDS011;60665;53.506;9.582;2022-08-23T09:04:51;6.22;;;1.40;;
72621;SDS011;60665;53.506;9.582;2022-08-23T09:07:26;3.28;;;1.52;;
72621;SDS011;60665;53.506;9.582;2022-08-23T09:13:46;6.00;;;1.90;;
72621;SDS011;60665;53.506;9.582;2022-08-23T09:18:41;4.93;;;1.60;;
72621;SDS011;60665;53.506;9.582;2022-08-23T09:21:07;4.03;;;2.00;;
72621;SDS011;60665;53.506;9.582;2022-08-23T09:23:35;4.47;;;1.40;;
72621;SDS011;60665;53.506;9.582;2022-08-23T09:26:07;5.88;;;1.50;;
72621;SDS011;60665;53.506;9.582;2022-08-23T09:28:41;7.75;;;1.70;;
72621;SDS011;60665;53.506;9.582;2022-08-23T09:31:08;7.47;;;2.00;;
72621;SDS011;60665;53.506;9.582;2022-08-23T09:38:38;7.35;;;1.63;;
72621;SDS011;60665;53.506;9.582;2022-08-23T09:41:17;5.35;;;1.55;;
72621;SDS011;60665;53.506;9.582;2022-08-23T09:43:44;3.55;;;1.50;;
72621;SDS011;60665;53.506;9.582;2022-08-23T09:46:16;6.22;;;1.50;;
72621;SDS011;60665;53.506;9.582;2022-08-23T09:48:59;6.97;;;1.63;;
72621;SDS011;60665;53.506;9.582;2022-08-23T09:51:46;5.75;;;2.08;;
72621;SDS011;60665;53.506;9.582;2022-08-23T09:54:17;4.32;;;1.65;;
72621;SDS011;60665;53.506;9.582;2022-08-23T09:56:49;4.20;;;1.40;;
72621;SDS011;60665;53.506;9.582;2022-08-23T10:01:46;3.53;;;1.25;;
72621;SDS011;60665;53.506;9.582;2022-08-23T10:06:41;3.88;;;1.40;;
72621;SDS011;60665;53.506;9.582;2022-08-23T10:09:14;4.65;;;1.45;;
72621;SDS011;60665;53.506;9.582;2022-08-23T10:11:47;3.88;;;1.50;;
72621;SDS011;60665;53.506;9.582;2022-08-23T10:14:14;7.13;;;2.10;;
72621;SDS011;60665;53.506;9.582;2022-08-23T10:22:48;4.00;;;2.20;;
72621;SDS011;60665;53.506;9.582;2022-08-23T10:25:32;4.00;;;1.30;;
72621;SDS011;60665;53.506;9.582;2022-08-23T10:31:16;5.10;;;1.60;;
72621;SDS011;60665;53.506;9.582;2022-08-23T10:39:51;6.10;;;1.50;;
72621;SDS011;60665;53.506;9.582;2022-08-23T10:50:41;4.97;;;1.80;;
72621;SDS011;60665;53.506;9.582;2022-08-23T10:53:16;4.13;;;1.40;;
72621;SDS011;60665;53.506;9.582;2022-08-23T10:55:47;3.83;;;1.30;;
72621;SDS011;60665;53.506;9.582;2022-08-23T10:58:26;6.28;;;1.50;;
72621;SDS011;60665;53.506;9.582;2022-08-23T11:01:01;3.20;;;1.27;;
72621;SDS011;60665;53.506;9.582;2022-08-23T11:03:41;3.80;;;2.00;;
72621;SDS011;60665;53.506;9.582;2022-08-23T11:06:23;5.82;;;1.95;;
72621;SDS011;60665;53.506;9.582;2022-08-23T11:08:56;5.68;;;1.63;;
72621;SDS011;60665;53.506;9.582;2022-08-23T11:11:34;5.20;;;1.63;;
72621;SDS011;60665;53.506;9.582;2022-08-23T11:14:06;3.55;;;1.30;;
72621;SDS011;60665;53.506;9.582;2022-08-23T11:16:34;3.97;;;1.75;;
72621;SDS011;60665;53.506;9.582;2022-08-23T11:19:02;6.63;;;1.33;;
72621;SDS011;60665;53.506;9.582;2022-08-23T11:31:43;3.80;;;1.23;;
72621;SDS011;60665;53.506;9.582;2022-08-23T11:34:20;7.32;;;1.70;;
72621;SDS011;60665;53.506;9.582;2022-08-23T11:42:45;4.05;;;1.20;;
72621;SDS011;60665;53.506;9.582;2022-08-23T11:48:05;3.30;;;1.15;;
72621;SDS011;60665;53.506;9.582;2022-08-23T11:50:39;5.88;;;1.42;;
72621;SDS011;60665;53.506;9.582;2022-08-23T11:59:16;4.35;;;1.55;;
72621;SDS011;60665;53.506;9.582;2022-08-23T12:01:45;2.92;;;1.30;;
72621;SDS011;60665;53.506;9.582;2022-08-23T12:04:30;5.85;;;1.63;;
72621;SDS011;60665;53.506;9.582;2022-08-23T12:07:02;4.30;;;1.63;;
72621;SDS011;60665;53.506;9.582;2022-08-23T12:12:11;3.25;;;1.10;;
72621;SDS011;60665;53.506;9.582;2022-08-23T12:14:49;4.00;;;1.20;;
72621;SDS011;60665;53.506;9.582;2022-08-23T12:19:44;5.43;;;1.42;;
72621;SDS011;60665;53.506;9.582;2022-08-23T12:22:14;3.60;;;1.52;;
72621;SDS011;60665;53.506;9.582;2022-08-23T12:24:50;4.45;;;1.55;;
72621;SDS011;60665;53.506;9.582;2022-08-23T12:30:07;4.75;;;1.25;;
72621;SDS011;60665;53.506;9.582;2022-08-23T12:41:26;4.15;;;1.40;;
72621;SDS011;60665;53.506;9.582;2022-08-23T12:43:57;3.10;;;1.30;;
72621;SDS011;60665;53.506;9.582;2022-08-23T12:46:41;8.32;;;1.67;;
72621;SDS011;60665;53.506;9.582;2022-08-23T12:49:15;2.88;;;1.35;;
72621;SDS011;60665;53.506;9.582;2022-08-23T12:51:56;3.17;;;1.20;;
72621;SDS011;60665;53.506;9.582;2022-08-23T12:54:31;2.88;;;1.20;;
72621;SDS011;60665;53.506;9.582;2022-08-23T12:57:06;3.60;;;1.40;;
72621;SDS011;60665;53.506;9.582;2022-08-23T13:02:29;2.83;;;1.00;;
72621;SDS011;60665;53.506;9.582;2022-08-23T13:04:57;4.22;;;1.50;;
72621;SDS011;60665;53.506;9.582;2022-08-23T13:07:27;3.05;;;0.93;;
72621;SDS011;60665;53.506;9.582;2022-08-23T13:09:53;2.67;;;0.95;;
72621;SDS011;60665;53.506;9.582;2022-08-23T13:12:18;3.75;;;1.20;;
72621;SDS011;60665;53.506;9.582;2022-08-23T13:17:16;4.20;;;1.02;;
72621;SDS011;60665;53.506;9.582;2022-08-23T13:19:49;3.63;;;1.42;;
72621;SDS011;60665;53.506;9.582;2022-08-23T13:32:42;3.70;;;0.80;;
72621;SDS011;60665;53.506;9.582;2022-08-23T13:37:56;3.78;;;1.00;;
72621;SDS011;60665;53.506;9.582;2022-08-23T13:40:26;4.07;;;1.30;;
72621;SDS011;60665;53.506;9.582;2022-08-23T13:42:56;2.85;;;0.80;;
72621;SDS011;60665;53.506;9.582;2022-08-23T13:45:30;3.13;;;1.00;;
72621;SDS011;60665;53.506;9.582;2022-08-23T13:48:09;3.92;;;1.00;;
72621;SDS011;60665;53.506;9.582;2022-08-23T13:50:38;5.07;;;1.08;;
72621;SDS011;60665;53.506;9.582;2022-08-23T13:53:04;4.15;;;1.45;;
72621;SDS011;60665;53.506;9.582;2022-08-23T13:55:30;2.33;;;0.80;;
72621;SDS011;60665;53.506;9.582;2022-08-23T13:57:58;6.40;;;1.10;;
72621;SDS011;60665;53.506;9.582;2022-08-23T14:00:24;3.28;;;0.93;;
72621;SDS011;60665;53.506;9.582;2022-08-23T14:02:50;2.67;;;1.00;;
72621;SDS011;60665;53.506;9.582;2022-08-23T14:05:17;3.67;;;1.10;;
72621;SDS011;60665;53.506;9.582;2022-08-23T14:07:46;3.30;;;0.90;;
72621;SDS011;60665;53.506;9.582;2022-08-23T14:10:12;3.63;;;1.05;;
72621;SDS011;60665;53.506;9.582;2022-08-23T14:12:39;5.03;;;1.10;;
72621;SDS011;60665;53.506;9.582;2022-08-23T14:15:07;6.25;;;1.30;;
72621;SDS011;60665;53.506;9.582;2022-08-23T14:17:34;4.78;;;1.10;;
72621;SDS011;60665;53.506;9.582;2022-08-23T14:20:04;6.22;;;1.65;;
72621;SDS011;60665;53.506;9.582;2022-08-23T14:22:31;7.45;;;1.05;;
72621;SDS011;60665;53.506;9.582;2022-08-23T14:24:57;4.70;;;1.08;;
72621;SDS011;60665;53.506;9.582;2022-08-23T14:27:22;4.45;;;1.10;;
72621;SDS011;60665;53.506;9.582;2022-08-23T14:29:47;5.88;;;1.05;;
72621;SDS011;60665;53.506;9.582;2022-08-23T14:32:13;4.88;;;1.00;;
72621;SDS011;60665;53.506;9.582;2022-08-23T14:34:38;7.90;;;0.90;;
72621;SDS011;60665;53.506;9.582;2022-08-23T14:37:03;6.63;;;1.00;;
72621;SDS011;60665;53.506;9.582;2022-08-23T14:39:29;3.85;;;1.15;;
72621;SDS011;60665;53.506;9.582;2022-08-23T14:41:55;3.70;;;0.90;;
72621;SDS011;60665;53.506;9.582;2022-08-23T14:44:20;2.00;;;0.90;;
72621;SDS011;60665;53.506;9.582;2022-08-23T14:46:45;5.43;;;1.30;;
72621;SDS011;60665;53.506;9.582;2022-08-23T14:49:11;3.85;;;0.90;;
72621;SDS011;60665;53.506;9.582;2022-08-23T14:51:39;6.90;;;1.17;;
72621;SDS011;60665;53.506;9.582;2022-08-23T14:54:06;3.33;;;0.88;;
72621;SDS011;60665;53.506;9.582;2022-08-23T14:56:32;3.45;;;1.05;;
72621;SDS011;60665;53.506;9.582;2022-08-23T14:58:58;2.88;;;0.90;;
72621;SDS011;60665;53.506;9.582;2022-08-23T15:01:23;5.97;;;0.98;;
72621;SDS011;60665;53.506;9.582;2022-08-23T15:03:49;7.00;;;0.98;;
72621;SDS011;60665;53.506;9.582;2022-08-23T15:06:15;3.95;;;1.00;;
72621;SDS011;60665;53.506;9.582;2022-08-23T15:08:42;4.20;;;1.30;;
72621;SDS011;60665;53.506;9.582;2022-08-23T15:11:08;5.35;;;1.55;;
72621;SDS011;60665;53.506;9.582;2022-08-23T15:13:34;4.55;;;0.82;;
72621;SDS011;60665;53.506;9.582;2022-08-23T15:16:00;3.20;;;0.90;;
72621;SDS011;60665;53.506;9.582;2022-08-23T15:18:27;4.93;;;1.02;;
72621;SDS011;60665;53.506;9.582;2022-08-23T15:20:52;5.95;;;0.95;;
72621;SDS011;60665;53.506;9.582;2022-08-23T15:23:18;4.70;;;1.20;;
72621;SDS011;60665;53.506;9.582;2022-08-23T15:25:43;4.15;;;1.08;;
72621;SDS011;60665;53.506;9.582;2022-08-23T15:28:10;3.95;;;0.82;;
72621;SDS011;60665;53.506;9.582;2022-08-23T15:30:37;3.30;;;0.95;;
72621;SDS011;60665;53.506;9.582;2022-08-23T15:33:03;3.42;;;1.08;;
72621;SDS011;60665;53.506;9.582;2022-08-23T15:35:28;4.22;;;1.10;;
72621;SDS011;60665;53.506;9.582;2022-08-23T15:37:58;5.65;;;1.10;;
72621;SDS011;60665;53.506;9.582;2022-08-23T15:40:24;5.65;;;1.60;;
72621;SDS011;60665;53.506;9.582;2022-08-23T15:42:49;5.95;;;1.30;;
72621;SDS011;60665;53.506;9.582;2022-08-23T15:45:15;4.97;;;1.42;;
72621;SDS011;60665;53.506;9.582;2022-08-23T15:47:48;4.90;;;1.00;;
72621;SDS011;60665;53.506;9.582;2022-08-23T15:50:16;5.90;;;1.20;;
72621;SDS011;60665;53.506;9.582;2022-08-23T15:52:42;4.85;;;1.10;;
72621;SDS011;60665;53.506;9.582;2022-08-23T15:55:07;2.15;;;0.85;;
72621;SDS011;60665;53.506;9.582;2022-08-23T15:57:37;3.65;;;0.95;;
72621;SDS011;60665;53.506;9.582;2022-08-23T16:00:07;6.78;;;1.20;;
72621;SDS011;60665;53.506;9.582;2022-08-23T16:02:33;4.53;;;1.48;;
72621;SDS011;60665;53.506;9.582;2022-08-23T16:04:59;4.38;;;1.40;;
72621;SDS011;60665;53.506;9.582;2022-08-23T16:07:24;4.43;;;1.00;;
72621;SDS011;60665;53.506;9.582;2022-08-23T16:09:49;4.43;;;1.02;;
72621;SDS011;60665;53.506;9.582;2022-08-23T16:12:15;5.57;;;1.05;;
72621;SDS011;60665;53.506;9.582;2022-08-23T16:14:40;4.07;;;1.17;;
72621;SDS011;60665;53.506;9.582;2022-08-23T16:17:06;5.30;;;1.10;;
72621;SDS011;60665;53.506;9.582;2022-08-23T16:19:31;4.28;;;1.20;;
72621;SDS011;60665;53.506;9.582;2022-08-23T16:21:57;5.35;;;1.20;;
72621;SDS011;60665;53.506;9.582;2022-08-23T16:24:23;4.10;;;1.23;;
72621;SDS011;60665;53.506;9.582;2022-08-23T16:26:48;4.88;;;1.00;;
72621;SDS011;60665;53.506;9.582;2022-08-23T16:29:15;5.55;;;1.30;;
72621;SDS011;60665;53.506;9.582;2022-08-23T16:31:42;3.80;;;1.20;;
72621;SDS011;60665;53.506;9.582;2022-08-23T16:34:10;4.70;;;1.20;;
72621;SDS011;60665;53.506;9.582;2022-08-23T16:36:38;3.30;;;1.30;;
72621;SDS011;60665;53.506;9.582;2022-08-23T16:41:30;4.43;;;1.10;;
72621;SDS011;60665;53.506;9.582;2022-08-23T16:43:56;2.65;;;0.93;;
72621;SDS011;60665;53.506;9.582;2022-08-23T16:46:21;5.22;;;1.30;;
72621;SDS011;60665;53.506;9.582;2022-08-23T16:48:47;4.50;;;1.00;;
72621;SDS011;60665;53.506;9.582;2022-08-23T16:51:13;7.00;;;1.15;;
72621;SDS011;60665;53.506;9.582;2022-08-23T16:53:38;6.57;;;1.20;;